首页
METAR-TAF:

METAR-TAF

机场 :

Hunt Field

Lander, 怀俄明州, 美国

纬度: 42-48-53N, 经度: 108-43-41W, 海拔: 1703米

当前天气观测

该预报发布于36分钟前的00:53 UTC
风速5节,风向西北
温度 -9°C
湿度 85%
气压 1021 hPa
能見度: 9.7公里
天空无云
轻雾

METAR: KLND 070053Z AUTO 31005KT 6SM BR CLR M09/M11 A3015 RMK AO2 SLP280 T10941111

时间: 18:29 (01:29 UTC)

预报

该预报发布于1小时和57分钟前的23:32 UTC
预报有效从07日的 00点(UTC)到 07日的 24点(UTC)
风速5节,风向多变
能見度: 10公里
少量云层高于20000英尺
从 07日的 1000点(UTC)
风速7节,风向西
能見度: 10公里
多云层高于15000英尺
从 07日的 1900点(UTC)
风速11节,风向西
能見度: 10公里
散云层高于15000英尺

TAF: KLND 062332Z 0700/0724 VRB05KT P6SM FEW200 FM071000 26007KT P6SM BKN150 FM071900 26011KT P6SM SCT150

超过4000个机场的气象观测和天气预报(METAR&TAF报告)。

可查询的气象台以黄色和红色小点在地图上表示。

将鼠标移到小点上方,可查看气象台名称。

然后点击查看天气观测和预报。

如需切换地图:点击带黑十字的绿色按钮放大地图;点击带横线的绿色按钮缩小地图;或者点击绿色箭头查看邻近地区的地图。


METAR-TAF: